Cooksville, IL (61730)

9:03 PM CDT on March 26, 2017 (GMT -0500)
Rural Cooksville | | Change Station

Elev 801 ft 40.52 °N, 88.72 °W | Updated 11 minutes ago

Overcast
Overcast
49.9 °F
Feels Like 47 °F
N
7.0
Wind Variable Wind from WNW
Gusts 10.0 mph

Today
High -- | Low -- °F
--% Chance of Precip.
Yesterday
High -- | Low -- °F
Precip. -- in
Pressure 30.02 in
Visibility 10.0 miles
Clouds Overcast 400 ft
Windchill 47 °F
Dew Point 49 °F
Humidity 96%
Rainfall 0.00 in
Snow Depth Not available.
6:47 AM 7:13 PM
Waning Crescent, 1% visible
METAR KBMI 270156Z 26011KT 10SM OVC004 09/09 A2994 RMK AO2 SLP166 T00940089
Pressure 30.02 in
Visibility 10.0 miles
Clouds Overcast 400 ft
Windchill 47 °F
Dew Point 49 °F
Humidity 96%
Rainfall 0.00 in
Snow Depth Not available.
6:47 AM 7:13 PM
Waning Crescent, 1% visible
METAR KBMI 270156Z 26011KT 10SM OVC004 09/09 A2994 RMK AO2 SLP166 T00940089

Get Severe Weather Alerts

Thanks for signing up!

Be on the lookout for a verification email in your inbox.

You'll start receiving the daily forecast at 8 AM.

×

10-Day Weather Forecast

Almanac

Astronomy

Mar. 26, 2017 Rise Set
Actual Time
Civil Twilight
Nautical Twilight
Astronomical Twilight
Moon
Length of Visible Light
Length of Day
Tomorrow will be .
, % of the Moon is Illuminated

Today's Extremes

State Highs State Lows

Community

WunderPhotos

Upload Photos

1,962,540 photos uploaded!

WunderBlog® & News

Nearby

Air Quality

  Air Quality AQ Index Pollutant
Not available.

Snow Depth

Station Depth Elevation

Earthquake Activity

City Distance Mag. Time & Date
Minimum magnitude displayed is 2.5.

Earthquake Activity

City Distance Mag. Time & Date
Minimum magnitude displayed is 2.5.

Coastal Water Temperatures

Place Temperature

Stations

Nearby Weather Stations

Station Location Temp. Windchill Dew Point Humidity Wind Precip. Elev Updated Type
                   

Watches & Warnings

There are currently no watches in effect.